Time;durP1;ratioP1;P1;durP2;ratioP2;P2;SDS_P1;SDS_P2;PMS_P1;PMS_P2;Temp;Humidity;BMP_temperature;BMP_pressure;BME280_temperature;BME280_humidity;BME280_pressure;Samples;Min_cycle;Max_cycle;Signal;HPM_P1;HPM_P2
2022/12/15 00:45:02;;;;;;;45.53;22.17;;;;;;;-2.32;100.00;99291.91;20740338;28;20100;-73
2022/12/15 01:26:03;;;;;;;45.15;20.73;;;;;;;-2.45;100.00;99319.84;20659565;28;20054;-73
2022/12/15 01:36:04;;;;;;;41.30;19.67;;;;;;;-2.42;100.00;99325.03;20704402;28;20085;-73
2022/12/15 01:46:05;;;;;;;44.92;20.95;;;;;;;-2.28;100.00;99322.72;20737177;28;20104;-73
2022/12/15 01:56:06;;;;;;;47.00;21.95;;;;;;;-2.33;100.00;99336.31;20736893;28;20057;-73
2022/12/15 02:06:08;;;;;;;46.70;22.35;;;;;;;-2.30;100.00;99330.38;20734350;28;20096;-73
2022/12/15 02:16:09;;;;;;;49.60;22.35;;;;;;;-2.40;100.00;99347.28;20735336;28;20054;-73
2022/12/15 02:26:10;;;;;;;46.55;21.73;;;;;;;-2.38;100.00;99348.19;20734454;28;20053;-73
2022/12/15 02:36:12;;;;;;;50.42;21.48;;;;;;;-2.39;100.00;99349.03;20733692;28;20050;-73
2022/12/15 02:46:13;;;;;;;48.03;22.50;;;;;;;-2.28;100.00;99363.75;20733232;28;20062;-73
2022/12/15 02:56:14;;;;;;;50.33;23.83;;;;;;;-2.37;100.00;99364.44;20813102;28;20152;-73
2022/12/15 03:06:16;;;;;;;46.05;21.67;;;;;;;-2.50;100.00;99373.56;20778762;28;20064;-73
2022/12/15 03:16:17;;;;;;;49.00;22.52;;;;;;;-2.36;100.00;99379.81;20747533;28;20077;-73
2022/12/15 03:26:18;;;;;;;46.78;21.65;;;;;;;-2.49;100.00;99380.44;20669365;28;20454;-73
2022/12/15 03:36:21;;;;;;;51.95;23.98;;;;;;;-2.40;100.00;99390.00;20664630;28;20046;-73
2022/12/15 03:46:22;;;;;;;47.63;22.35;;;;;;;-2.35;100.00;99396.97;20664480;28;20070;-73
2022/12/15 03:56:24;;;;;;;52.38;23.33;;;;;;;-2.41;100.00;99386.56;20663169;28;20065;-73
2022/12/15 04:06:25;;;;;;;53.85;23.90;;;;;;;-2.41;100.00;99389.13;20714154;28;20112;-73
2022/12/15 04:16:26;;;;;;;42.67;21.58;;;;;;;-2.49;100.00;99400.94;20741996;28;20057;-72
2022/12/15 05:38:49;;;;;;;50.85;24.08;;;;;;;-2.38;100.00;99430.22;20655431;28;20554;-72
2022/12/15 05:48:51;;;;;;;50.78;24.60;;;;;;;-2.41;100.00;99435.25;20662222;28;20050;-73
2022/12/15 05:58:52;;;;;;;48.45;24.25;;;;;;;-2.45;100.00;99440.28;20738108;28;20062;-72
2022/12/15 06:08:53;;;;;;;55.13;24.70;;;;;;;-2.44;100.00;99448.03;20737203;28;20161;-73
2022/12/15 06:18:55;;;;;;;56.78;25.88;;;;;;;-2.47;100.00;99450.53;20718368;28;20054;-72
2022/12/15 06:28:56;;;;;;;59.13;25.38;;;;;;;-2.55;100.00;99457.19;20672459;28;20050;-73
2022/12/15 06:38:57;;;;;;;58.55;25.50;;;;;;;-2.51;100.00;99479.47;20814732;28;20049;-72
2022/12/15 06:48:59;;;;;;;55.40;25.95;;;;;;;-2.53;100.00;99488.84;20838750;28;20576;-72
2022/12/15 06:59:00;;;;;;;55.58;25.27;;;;;;;-2.46;100.00;99485.56;20913530;28;20056;-72
2022/12/15 07:09:02;;;;;;;56.20;25.70;;;;;;;-2.60;100.00;99484.41;20911455;28;20429;-72
2022/12/15 07:19:03;;;;;;;60.08;24.25;;;;;;;-2.67;100.00;99469.75;20874463;28;20525;-72
2022/12/15 07:29:04;;;;;;;55.90;24.90;;;;;;;-2.70;100.00;99452.59;20762681;28;20091;-73
2022/12/15 07:39:06;;;;;;;55.28;26.75;;;;;;;-2.79;100.00;99461.75;20826183;28;20065;-72
2022/12/15 07:49:08;;;;;;;58.13;24.98;;;;;;;-2.94;100.00;99468.28;20825601;28;20057;-72
2022/12/15 07:59:09;;;;;;;57.97;26.20;;;;;;;-2.91;100.00;99509.34;20825544;28;20140;-72
2022/12/15 08:09:11;;;;;;;59.90;26.60;;;;;;;-3.10;100.00;99522.53;20824632;28;20049;-73
2022/12/15 08:19:12;;;;;;;56.70;26.60;;;;;;;-3.20;100.00;99546.16;20803832;28;20057;-72
2022/12/15 08:29:13;;;;;;;71.32;30.13;;;;;;;-3.30;100.00;99544.19;20742020;28;20062;-72
2022/12/15 08:39:35;;;;;;;64.28;28.77;;;;;;;-3.31;100.00;99570.59;20741379;28;20156;-72
2022/12/15 08:49:36;;;;;;;59.22;27.13;;;;;;;-3.40;100.00;99574.66;20739949;28;20054;-72
2022/12/15 08:59:37;;;;;;;59.63;26.83;;;;;;;-3.30;100.00;99567.22;20740507;28;20058;-72
2022/12/15 09:09:38;;;;;;;59.40;27.20;;;;;;;-3.29;100.00;99557.03;20737918;28;20398;-71
2022/12/15 09:19:40;;;;;;;63.55;28.55;;;;;;;-3.27;100.00;99539.13;20761301;28;20064;-70
2022/12/15 09:29:41;;;;;;;58.22;28.67;;;;;;;-3.00;100.00;99567.16;20818766;28;20057;-70
2022/12/15 09:39:42;;;;;;;67.32;30.83;;;;;;;-2.73;100.00;99564.38;20818035;28;20411;-69
2022/12/15 09:49:44;;;;;;;64.95;27.67;;;;;;;-2.77;100.00;99552.34;20818520;28;20061;-69
2022/12/15 09:59:45;;;;;;;55.00;27.08;;;;;;;-2.66;100.00;99543.19;20817789;28;20069;-69
2022/12/15 10:09:48;;;;;;;63.92;26.98;;;;;;;-2.62;100.00;99553.56;20816590;28;20056;-70
2022/12/15 10:19:50;;;;;;;60.33;26.08;;;;;;;-2.48;100.00;99546.19;20792380;28;20061;-69
2022/12/15 10:29:51;;;;;;;61.15;26.30;;;;;;;-2.23;100.00;99555.28;20735103;28;20057;-70
2022/12/15 10:39:53;;;;;;;59.05;26.38;;;;;;;-2.21;100.00;99558.75;20734128;28;20049;-70
2022/12/15 10:49:54;;;;;;;56.45;27.08;;;;;;;-2.35;100.00;99527.69;20749355;28;20053;-70
2022/12/15 10:59:55;;;;;;;64.75;27.52;;;;;;;-2.26;100.00;99508.19;20816556;28;20152;-69
2022/12/15 11:09:57;;;;;;;60.40;27.00;;;;;;;-2.29;100.00;99492.78;20818241;28;20111;-69
2022/12/15 11:19:58;;;;;;;62.80;27.77;;;;;;;-2.23;100.00;99478.38;20804460;28;20103;-70
2022/12/15 11:30:03;;;;;;;67.18;28.08;;;;;;;-2.25;100.00;99476.59;20747049;28;20085;-70
2022/12/15 11:40:05;;;;;;;59.83;28.98;;;;;;;-2.25;100.00;99476.59;20746049;28;20062;-70
2022/12/15 11:50:07;;;;;;;57.90;26.08;;;;;;;-2.37;100.00;99460.13;20761378;28;20065;-70
2022/12/15 12:00:08;;;;;;;59.90;26.20;;;;;;;-2.30;100.00;99437.19;20825501;28;20057;-70
2022/12/15 12:10:09;;;;;;;53.88;25.15;;;;;;;-2.42;100.00;99410.47;20825714;28;20060;-70
2022/12/15 12:20:11;;;;;;;60.08;27.73;;;;;;;-2.28;100.00;99399.63;20795957;28;20058;-70
2022/12/15 12:30:12;;;;;;;58.00;26.65;;;;;;;-2.56;100.00;99393.94;20741450;28;20505;-71
2022/12/15 12:40:14;;;;;;;56.20;27.33;;;;;;;-2.57;100.00;99397.34;20741597;28;20494;-71
2022/12/15 12:50:15;;;;;;;58.80;28.50;;;;;;;-2.71;100.00;99368.03;20757197;28;20049;-71
2022/12/15 13:00:17;;;;;;;67.65;28.70;;;;;;;-2.75;100.00;99368.78;20820407;28;20065;-71
2022/12/15 13:10:18;;;;;;;73.28;30.17;;;;;;;-2.88;100.00;99350.59;20819753;28;20064;-72
2022/12/15 13:20:19;;;;;;;79.18;33.83;;;;;;;-2.94;100.00;99345.34;20791958;28;20109;-72
2022/12/15 13:30:21;;;;;;;79.13;32.67;;;;;;;-3.22;100.00;99341.31;20738026;28;20553;-72
2022/12/15 13:40:23;;;;;;;81.93;31.55;;;;;;;-3.34;100.00;99332.53;20736361;28;20054;-72
2022/12/15 13:50:24;;;;;;;79.97;30.83;;;;;;;-3.53;100.00;99337.22;20753643;28;20057;-72
2022/12/15 14:00:25;;;;;;;80.40;32.53;;;;;;;-3.59;100.00;99315.72;20817374;28;20053;-73
2022/12/15 14:10:26;;;;;;;81.47;32.63;;;;;;;-3.66;100.00;99324.94;20776355;28;20077;-72
2022/12/15 14:20:28;;;;;;;82.85;32.17;;;;;;;-3.72;100.00;99319.69;20730453;28;20054;-73
2022/12/15 14:30:29;;;;;;;88.55;36.15;;;;;;;-3.79;100.00;99343.38;20731222;28;20108;-73
2022/12/15 14:40:31;;;;;;;89.65;33.72;;;;;;;-3.86;100.00;99329.59;20731750;28;20102;-73
2022/12/15 14:50:32;;;;;;;92.97;35.70;;;;;;;-3.97;100.00;99349.78;20766700;28;20107;-73
2022/12/15 15:00:33;;;;;;;97.38;36.53;;;;;;;-3.91;100.00;99357.59;20832323;28;20104;-72
2022/12/15 15:10:35;;;;;;;92.57;34.78;;;;;;;-4.05;100.00;99356.38;20830171;28;20111;-72
2022/12/15 15:20:36;;;;;;;96.00;35.40;;;;;;;-4.10;100.00;99344.31;20797462;28;20054;-73
2022/12/15 15:30:38;;;;;;;91.07;34.25;;;;;;;-4.22;100.00;99343.16;20746453;28;20042;-72
2022/12/15 15:40:39;;;;;;;92.88;34.10;;;;;;;-4.23;100.00;99340.56;20745416;28;20054;-71
2022/12/15 15:50:40;;;;;;;94.45;35.60;;;;;;;-4.23;100.00;99332.91;20763528;28;20466;-72
2022/12/15 16:00:42;;;;;;;80.95;31.65;;;;;;;-4.29;100.00;99341.28;20808621;28;20108;-71
2022/12/15 16:10:44;;;;;;;85.68;33.05;;;;;;;-4.34;100.00;99336.88;20741861;28;20054;-71
2022/12/15 16:20:45;;;;;;;86.78;33.55;;;;;;;-4.28;100.00;99344.69;20741552;28;20062;-72
2022/12/15 16:30:46;;;;;;;84.25;34.22;;;;;;;-4.26;100.00;99333.72;20739973;28;20454;-72
2022/12/15 16:40:48;;;;;;;84.53;34.03;;;;;;;-4.25;100.00;99342.22;20738322;28;20074;-72
2022/12/15 16:50:50;;;;;;;83.90;33.15;;;;;;;-4.13;100.00;99345.94;20759236;28;20053;-72
2022/12/15 17:00:55;;;;;;;86.72;35.75;;;;;;;-4.04;100.00;99355.56;20819723;28;20053;-70
2022/12/15 17:10:56;;;;;;;76.22;31.35;;;;;;;-3.99;100.00;99340.34;20807596;28;20045;-71
2022/12/15 17:20:57;;;;;;;77.50;31.65;;;;;;;-3.95;100.00;99325.09;20796956;28;20057;-72
2022/12/15 17:30:59;;;;;;;87.53;33.35;;;;;;;-3.97;100.00;99319.09;20809834;28;20521;-71
2022/12/15 17:41:00;;;;;;;69.22;29.13;;;;;;;-3.97;100.00;99303.78;20763630;28;20402;-71
2022/12/15 17:51:02;;;;;;;80.10;32.90;;;;;;;-3.88;100.00;99293.75;20750672;28;20180;-72
2022/12/15 18:01:03;;;;;;;71.75;27.05;;;;;;;-3.98;100.00;99291.78;20807840;28;20053;-72
2022/12/15 18:11:04;;;;;;;68.72;27.27;;;;;;;-3.98;100.00;99291.78;20797453;28;20123;-71
2022/12/15 18:21:06;;;;;;;69.22;28.08;;;;;;;-3.90;100.00;99285.19;20807033;28;20065;-71
2022/12/15 18:31:07;;;;;;;75.15;27.85;;;;;;;-3.85;100.00;99287.84;20812152;28;20053;-72
2022/12/15 18:41:08;;;;;;;67.68;27.13;;;;;;;-3.78;100.00;99283.75;20821858;28;20065;-72
2022/12/15 18:51:10;;;;;;;64.07;25.40;;;;;;;-3.74;100.00;99265.06;20821175;28;20107;-72
2022/12/15 19:01:11;;;;;;;64.18;25.65;;;;;;;-3.81;100.00;99269.19;20821023;28;20465;-72
2022/12/15 19:11:15;;;;;;;69.20;25.70;;;;;;;-3.74;100.00;99270.19;20819455;28;20061;-71
2022/12/15 19:31:37;;;;;;;66.47;26.48;;;;;;;-3.59;100.00;99265.44;20816200;28;20083;-72
2022/12/15 19:41:38;;;;;;;64.35;24.38;;;;;;;-3.57;100.00;99262.91;20817729;28;20057;-71
2022/12/15 19:51:40;;;;;;;65.05;25.40;;;;;;;-3.51;100.00;99261.34;20818558;28;20401;-71
2022/12/15 20:01:41;;;;;;;65.85;25.92;;;;;;;-3.38;100.00;99271.00;20815093;28;20065;-71
2022/12/15 20:11:43;;;;;;;64.05;24.95;;;;;;;-3.45;100.00;99273.41;20814679;28;20084;-71
2022/12/15 20:21:44;;;;;;;63.80;24.98;;;;;;;-3.56;100.00;99260.38;20815067;28;20107;-71
2022/12/15 20:31:45;;;;;;;65.10;25.25;;;;;;;-3.55;100.00;99277.44;20814038;28;20073;-71
2022/12/15 20:41:47;;;;;;;54.30;22.92;;;;;;;-3.50;100.00;99269.88;20813985;28;20195;-72
2022/12/15 20:51:49;;;;;;;52.33;23.00;;;;;;;-3.56;100.00;99262.94;20815281;28;20418;-71
2022/12/15 21:01:51;;;;;;;58.30;23.77;;;;;;;-3.57;100.00;99270.59;20814536;28;20473;-72
2022/12/15 21:11:55;;;;;;;52.85;21.23;;;;;;;-3.61;100.00;99282.44;20814613;28;20050;-72
2022/12/15 21:21:56;;;;;;;55.03;22.60;;;;;;;-3.79;100.00;99287.97;20812117;28;20064;-71
2022/12/15 21:31:58;;;;;;;53.53;22.65;;;;;;;-3.62;100.00;99285.81;20809545;28;20532;-73
2022/12/15 21:41:59;;;;;;;52.88;21.67;;;;;;;-3.60;100.00;99289.28;20817101;28;20056;-78
2022/12/15 21:52:00;;;;;;;52.30;22.33;;;;;;;-3.56;100.00;99283.41;20814951;28;20103;-78
2022/12/15 22:02:01;;;;;;;49.03;21.10;;;;;;;-3.45;100.00;99298.97;20817393;28;20054;-79
2022/12/15 22:12:03;;;;;;;49.35;20.80;;;;;;;-3.48;100.00;99297.25;20816444;28;20071;-77
2022/12/15 22:22:04;;;;;;;51.67;21.05;;;;;;;-3.44;100.00;99303.28;20812761;28;20469;-78
2022/12/15 22:32:05;;;;;;;47.28;19.35;;;;;;;-3.30;100.00;99308.72;20814208;28;20115;-77
2022/12/15 22:42:07;;;;;;;47.05;19.88;;;;;;;-3.22;100.00;99297.78;20810120;28;20053;-77
2022/12/15 22:52:08;;;;;;;48.42;18.88;;;;;;;-3.24;100.00;99290.94;20780382;28;20062;-77
2022/12/15 23:02:09;;;;;;;45.80;17.25;;;;;;;-3.14;100.00;99295.41;20729670;28;20053;-77
2022/12/15 23:12:11;;;;;;;39.10;17.58;;;;;;;-3.21;100.00;99293.53;20747787;28;20514;-77
2022/12/15 23:22:12;;;;;;;37.35;16.85;;;;;;;-3.18;100.00;99276.56;20750614;28;20054;-78
2022/12/15 23:32:13;;;;;;;40.35;16.25;;;;;;;-3.20;100.00;99277.38;20750151;28;20081;-78
2022/12/15 23:42:15;;;;;;;42.78;17.25;;;;;;;-3.19;100.00;99271.41;20748639;28;20054;-78
2022/12/15 23:52:19;;;;;;;39.80;15.90;;;;;;;-3.25;100.00;99271.28;20782044;28;20505;-77
